Startpagina
METAR-TAF:

METAR-TAF

Vliegvelden :

Büchel, Duitsland

breedte: 50-10N, lengte: 007-04E, hoogte: 478 m

Actueel weer

Dit bericht is 52 minuten geleden gemaakt, om 07:20 UTC
Wind 7 kt uit het noorden
Temperatuur 8°C
Vochtigheid 87%
Druk 1029 hPa
Zicht 10 km of meer

METAR: ETSB 200720Z AUTO 36007KT 9999 // ////// 08/06 Q1029 ///

Tijdstip: 10:12 (08:12 UTC)

Verwachting

Dit bericht is 20 uur en het 39 minuten geleden gemaakt, om 11:33 UTC
Verwachting geldig van 19 om 11 UTC tot 19 om 20 UTC
Wind 6 kt uit het oosten
Zicht: 6000 m
Gebroken wolken op 1000 ft
Wijzigt naar
van 19 om 12 UTC tot 19 om 14 UTC
Wind 6 kt uit het oostnoordoosten
Zicht: 1133 m
Verspreide wolken op 1000 ft

TAF: ETSB 191133Z 1911/1920 08006KT 6000 NSW BKN010 BECMG 1912/1914 06006KT 9000 NSW SCT010 CANCEL 1133 BY ETGL

Waarnemingen en weersverwachtingen van meer dan 4000 vliegvelden (METAR en TAF).

De beschikbare stations zijn de gele en rode punten op de kaart.

Ga met uw muis naar het station om de naam te zien.

Klik dan om waarnemingen en weersverwachtingen te zien.

kaart wijzigen: klik op de groene knoppen met een zwart kruis om in te zoomen, op de groene knop met een streepje om uit te zoomen of op de groene pijlen voor aangrenzende kaarten.


METAR-TAF: